Date,TemperatureHighF,TemperatureAvgF,TemperatureLowF,DewpointHighF,DewpointAvgF,DewpointLowF,HumidityHigh,HumidityAvg,HumidityLow,PressureMaxIn,PressureMinIn,WindSpeedMaxMPH,WindSpeedAvgMPH,GustSpeedMaxMPH,PrecipitationSumIn
2013-9-1,72.0,63.2,53.0,52.0,47.6,44.0,77,59,37,0.00,40.00,3,1,6,0.00
2013-9-2,64.0,55.4,50.0,51.0,46.8,41.0,92,73,62,0.00,40.00,6,3,12,0.00
2013-9-3,59.0,52.8,49.0,52.0,49.4,47.0,97,89,73,0.00,40.00,7,4,9,0.00
2013-9-4,66.0,56.6,51.0,52.0,46.8,43.0,83,70,52,0.00,40.00,7,4,12,0.00
2013-9-5,60.0,54.7,45.0,52.0,48.6,45.0,99,80,71,0.00,40.00,8,6,27,0.28
2013-9-6,48.0,44.6,42.0,48.0,44.4,42.0,99,99,98,0.00,40.00,10,8,12,0.09
2013-9-7,52.0,43.6,43.0,49.0,35.2,-99.9,99,88,89,0.00,40.00,12,9,12,0.01
2013-9-8,63.0,55.6,46.0,52.0,46.8,42.0,96,73,58,0.00,40.00,10,6,12,0.00
2013-9-9,67.0,59.5,53.0,52.0,46.2,36.0,86,62,50,0.00,40.00,6,3,13,0.00
2013-9-10,66.0,59.6,55.0,49.0,45.7,42.0,81,60,51,0.00,40.00,6,3,10,0.00
2013-9-11,72.0,62.5,56.0,51.0,44.7,41.0,61,52,41,0.00,40.00,8,4,15,0.00
2013-9-12,68.0,62.6,59.0,51.0,45.4,42.0,63,54,44,0.00,40.00,3,2,5,0.00
2013-9-13,68.0,63.4,60.0,54.0,45.3,40.0,75,53,44,0.00,40.00,3,2,6,0.00
2013-9-17,41.0,39.2,37.0,41.0,38.8,37.0,100,99,98,0.00,40.00,21,11,37,0.01
2013-9-18,36.0,36.0,36.0,36.0,36.0,36.0,99,99,99,0.00,40.00,23,23,40,0.00
2013-9-19,55.0,45.5,37.0,40.0,34.7,26.0,83,67,52,0.00,40.00,15,11,22,0.00
2013-9-20,60.0,50.7,43.0,40.0,35.6,32.0,87,58,41,0.00,40.00,12,9,22,0.00
2013-9-21,47.0,41.1,39.0,41.0,39.3,38.0,99,94,80,0.00,40.00,10,9,13,0.09
2013-9-22,39.0,36.6,35.0,39.0,36.0,34.0,99,98,96,0.00,40.00,27,16,54,0.52
2013-9-23,37.0,35.2,34.0,37.0,35.2,34.0,99,99,98,0.00,40.00,27,19,50,0.20
2013-9-24,38.0,32.9,30.0,35.0,32.1,29.0,100,97,90,0.00,40.00,15,13,25,0.02
2013-9-25,37.0,32.8,31.0,36.0,32.3,31.0,99,98,94,0.00,40.00,15,13,22,0.05
2013-9-26,37.0,32.7,31.0,35.0,31.7,30.0,98,96,93,0.00,40.00,17,16,22,0.00
2013-9-27,38.0,37.8,37.0,38.0,37.8,37.0,100,99,99,0.00,40.00,15,13,28,0.07